Terminal Aerodrome Forecast
Issued by NWS Jackson, MS

Home | Current Version | Previous Version | Text Only | Print | Product List | Glossary On
Versions: 1 2 3 4 5 6 7 8 9 10 11 12 13 14 15 16 17
000
FTUS44 KJAN 251100
TAFGWO
TAF
KGWO 251124Z 2512/2612 20009KT P6SM SKC
     FM251800 24015G28KT P6SM VCSH BKN070
     FM260000 29010G17KT P6SM OVC050
     FM260600 32007KT P6SM BKN035=

USA.gov is the U.S. government's official web portal to all federal, state and local government web resources and services.